Time;durP1;ratioP1;P1;durP2;ratioP2;P2;SDS_P1;SDS_P2;PMS_P1;PMS_P2;Temp;Humidity;BMP_temperature;BMP_pressure;BME280_temperature;BME280_humidity;BME280_pressure;Samples;Min_cycle;Max_cycle;Signal;HPM_P1;HPM_P2
2023/09/17 00:01:31;;;;;;;0.00;0.00;;;21.60;97.90;;;;;;5013805;28;20507;-74
2023/09/17 00:03:58;;;;;;;0.00;0.00;;;21.60;97.90;;;;;;5011871;28;20482;-73
2023/09/17 00:06:24;;;;;;;0.00;0.00;;;21.60;97.50;;;;;;5013269;28;20426;-74
2023/09/17 00:08:51;;;;;;;0.00;0.00;;;21.60;97.20;;;;;;5014711;28;20419;-74
2023/09/17 00:11:17;;;;;;;0.00;0.00;;;21.60;96.70;;;;;;5002933;28;20420;-74
2023/09/17 00:13:44;;;;;;;0.00;0.00;;;21.50;96.60;;;;;;5028551;28;20904;-74
2023/09/17 00:16:11;;;;;;;0.00;0.00;;;21.50;96.80;;;;;;5018313;28;20419;-74
2023/09/17 00:18:37;;;;;;;0.00;0.00;;;21.50;96.20;;;;;;5014981;28;20439;-74
2023/09/17 00:21:06;;;;;;;0.00;0.00;;;21.40;96.60;;;;;;5024091;28;20448;-74
2023/09/17 00:23:32;;;;;;;0.00;0.00;;;21.40;96.50;;;;;;5014810;28;20473;-74
2023/09/17 00:25:58;;;;;;;0.00;0.00;;;21.30;96.70;;;;;;5012097;28;20766;-74
2023/09/17 00:28:24;;;;;;;0.00;0.00;;;21.30;96.80;;;;;;5008977;28;20577;-74
2023/09/17 00:30:50;;;;;;;0.00;0.00;;;21.40;96.80;;;;;;5030409;28;20413;-74
2023/09/17 00:33:17;;;;;;;0.00;0.00;;;21.40;96.30;;;;;;5013316;28;20492;-75
2023/09/17 00:35:44;;;;;;;0.00;0.00;;;21.40;96.10;;;;;;5028477;28;20415;-74
2023/09/17 00:38:10;;;;;;;0.00;0.00;;;21.40;95.90;;;;;;5015684;28;20476;-75
2023/09/17 00:40:37;;;;;;;0.00;0.00;;;21.40;95.80;;;;;;5007036;28;20963;-74
2023/09/17 00:43:04;;;;;;;0.00;0.00;;;21.40;96.00;;;;;;5032618;28;20446;-74
2023/09/17 00:45:32;;;;;;;0.00;0.00;;;21.40;96.00;;;;;;5010795;28;20508;-74
2023/09/17 00:48:00;;;;;;;0.00;0.00;;;21.40;95.80;;;;;;5006583;28;20432;-74
2023/09/17 00:50:26;;;;;;;0.00;0.00;;;21.30;95.80;;;;;;4996217;28;20428;-74
2023/09/17 00:52:53;;;;;;;0.00;0.00;;;21.30;95.60;;;;;;5009424;28;20424;-74
2023/09/17 00:55:19;;;;;;;0.00;0.00;;;21.30;95.70;;;;;;5009834;28;20423;-74
2023/09/17 00:57:46;;;;;;;0.00;0.00;;;21.20;95.60;;;;;;5012502;28;20485;-75
2023/09/17 01:00:14;;;;;;;0.00;0.00;;;21.20;95.30;;;;;;5019156;28;20784;-74
2023/09/17 01:02:42;;;;;;;0.00;0.00;;;21.20;95.10;;;;;;5042973;28;20445;-74
2023/09/17 01:05:08;;;;;;;0.00;0.00;;;21.20;94.60;;;;;;5002677;28;20416;-74
2023/09/17 01:07:35;;;;;;;0.00;0.00;;;21.10;94.60;;;;;;5022317;28;20421;-73
2023/09/17 01:10:02;;;;;;;0.00;0.00;;;21.10;94.60;;;;;;5002228;28;20447;-73
2023/09/17 01:12:28;;;;;;;0.00;0.00;;;21.10;94.40;;;;;;5011885;28;20434;-73
2023/09/17 01:14:55;;;;;;;0.00;0.00;;;21.10;94.20;;;;;;5017202;28;20424;-72
2023/09/17 01:17:26;;;;;;;0.00;0.00;;;21.10;94.20;;;;;;5048582;28;20493;-73
2023/09/17 01:19:55;;;;;;;0.00;0.00;;;21.10;94.40;;;;;;5030839;28;20542;-74
2023/09/17 01:22:34;;;;;;;0.00;0.00;;;21.10;94.40;;;;;;5014640;28;20425;-74
2023/09/17 01:25:32;;;;;;;0.00;0.00;;;21.10;94.60;;;;;;5017323;28;20620;-74
2023/09/17 01:28:01;;;;;;;0.00;0.00;;;21.10;94.40;;;;;;5024427;28;20443;-74
2023/09/17 01:30:27;;;;;;;0.00;0.00;;;21.10;94.40;;;;;;5013244;28;20569;-74
2023/09/17 01:32:54;;;;;;;0.00;0.00;;;21.10;94.60;;;;;;5012801;28;20454;-75
2023/09/17 01:35:21;;;;;;;0.00;0.00;;;21.10;94.10;;;;;;5022327;28;20412;-74
2023/09/17 01:37:59;;;;;;;0.00;0.00;;;21.10;94.20;;;;;;5011261;28;20447;-74
2023/09/17 01:40:30;;;;;;;0.00;0.00;;;21.00;94.40;;;;;;5001838;28;20514;-73
2023/09/17 01:43:00;;;;;;;0.00;0.00;;;21.00;94.40;;;;;;5029678;28;20705;-73
2023/09/17 01:45:29;;;;;;;0.00;0.00;;;21.00;94.70;;;;;;5031254;28;20830;-73
2023/09/17 01:47:56;;;;;;;0.00;0.00;;;21.00;95.00;;;;;;5013290;28;20523;-74
2023/09/17 01:50:25;;;;;;;0.00;0.00;;;21.00;95.30;;;;;;5029763;28;20423;-73
2023/09/17 01:52:53;;;;;;;0.00;0.00;;;21.00;95.70;;;;;;5010851;28;20899;-73
2023/09/17 01:55:20;;;;;;;0.00;0.00;;;21.10;95.90;;;;;;5018394;28;20489;-73
2023/09/17 01:57:46;;;;;;;0.00;0.00;;;21.10;96.10;;;;;;5013968;28;20470;-73
2023/09/17 02:00:16;;;;;;;0.00;0.00;;;21.10;96.00;;;;;;5044057;28;20962;-74
2023/09/17 02:02:50;;;;;;;0.00;0.00;;;21.10;96.10;;;;;;5028282;28;20425;-74
2023/09/17 02:05:17;;;;;;;0.00;0.00;;;21.10;96.10;;;;;;5029563;28;20407;-74
2023/09/17 02:07:44;;;;;;;0.00;0.00;;;21.10;95.70;;;;;;5032614;28;20440;-74
2023/09/17 02:10:10;;;;;;;0.00;0.00;;;21.10;95.00;;;;;;5034505;28;20456;-74
2023/09/17 02:12:38;;;;;;;0.00;0.00;;;21.10;95.60;;;;;;5011292;28;20420;-74
2023/09/17 02:15:06;;;;;;;0.00;0.00;;;21.10;95.80;;;;;;5011905;28;20420;-74
2023/09/17 02:17:32;;;;;;;0.00;0.00;;;21.10;95.20;;;;;;5007192;28;20484;-74
2023/09/17 02:19:58;;;;;;;0.00;0.00;;;21.10;95.10;;;;;;5013115;28;20503;-74
2023/09/17 02:22:25;;;;;;;0.00;0.00;;;21.10;94.80;;;;;;5026088;28;20455;-74
2023/09/17 02:24:51;;;;;;;0.00;0.00;;;21.10;94.90;;;;;;5005135;28;20500;-74
2023/09/17 02:27:18;;;;;;;0.00;0.00;;;21.10;95.00;;;;;;5024971;28;21118;-74
2023/09/17 02:29:44;;;;;;;0.00;0.00;;;21.00;95.10;;;;;;5009682;28;21010;-74
2023/09/17 02:32:10;;;;;;;0.00;0.00;;;21.00;95.60;;;;;;5018272;28;20963;-74
2023/09/17 02:34:38;;;;;;;0.00;0.00;;;21.00;95.80;;;;;;5016058;28;20480;-74
2023/09/17 02:37:04;;;;;;;0.00;0.00;;;21.00;95.50;;;;;;5016578;28;20463;-74
2023/09/17 02:39:30;;;;;;;0.00;0.00;;;21.00;95.50;;;;;;5030516;28;20519;-73
2023/09/17 02:41:58;;;;;;;0.00;0.00;;;21.00;95.90;;;;;;5019875;28;20427;-73
2023/09/17 02:44:25;;;;;;;0.00;0.00;;;21.00;95.90;;;;;;5008469;28;20458;-73
2023/09/17 02:46:52;;;;;;;0.00;0.00;;;21.00;95.80;;;;;;5011608;28;20419;-73
2023/09/17 02:49:21;;;;;;;0.00;0.00;;;21.00;95.90;;;;;;5014680;28;20415;-73
2023/09/17 02:51:49;;;;;;;0.00;0.00;;;20.90;96.00;;;;;;5020281;28;20776;-73
2023/09/17 02:54:16;;;;;;;0.00;0.00;;;20.90;95.90;;;;;;5014798;28;20939;-73
2023/09/17 02:56:42;;;;;;;0.00;0.00;;;21.00;96.10;;;;;;5014793;28;20486;-74
2023/09/17 02:59:09;;;;;;;0.00;0.00;;;21.00;95.90;;;;;;5012630;28;20423;-74
2023/09/17 03:01:35;;;;;;;0.00;0.00;;;20.90;95.80;;;;;;5008674;28;20411;-74
2023/09/17 03:04:02;;;;;;;0.00;0.00;;;20.90;95.80;;;;;;5016003;28;20428;-74
2023/09/17 03:06:33;;;;;;;0.00;0.00;;;20.90;95.80;;;;;;5029668;28;20502;-74
2023/09/17 03:09:01;;;;;;;0.00;0.00;;;20.90;95.80;;;;;;5009177;28;20517;-74
2023/09/17 03:11:28;;;;;;;0.00;0.00;;;20.90;96.00;;;;;;5007742;28;20785;-74
2023/09/17 03:13:56;;;;;;;0.00;0.00;;;20.90;96.00;;;;;;5030628;28;20878;-73
2023/09/17 03:16:22;;;;;;;0.00;0.00;;;20.90;96.10;;;;;;5012400;28;20433;-72
2023/09/17 03:18:48;;;;;;;0.00;0.00;;;20.90;96.10;;;;;;5025742;28;20484;-73
2023/09/17 03:21:16;;;;;;;0.00;0.00;;;20.90;95.90;;;;;;5016295;28;20901;-72
2023/09/17 03:23:42;;;;;;;0.00;0.00;;;20.90;96.00;;;;;;5013791;28;20432;-73
2023/09/17 03:26:09;;;;;;;0.00;0.00;;;20.90;96.20;;;;;;5031611;28;20423;-73
2023/09/17 03:28:36;;;;;;;0.00;0.00;;;20.90;95.90;;;;;;5027298;28;20429;-73
2023/09/17 03:31:03;;;;;;;0.00;0.00;;;21.00;95.20;;;;;;5016975;28;20996;-72
2023/09/17 03:33:30;;;;;;;0.00;0.00;;;21.00;95.00;;;;;;5012340;28;21216;-72
2023/09/17 03:35:58;;;;;;;0.00;0.00;;;21.00;94.90;;;;;;5019687;28;20450;-72
2023/09/17 03:38:24;;;;;;;0.00;0.00;;;20.90;95.20;;;;;;5016644;28;20777;-72
2023/09/17 03:40:51;;;;;;;0.00;0.00;;;20.90;95.00;;;;;;5015113;28;20940;-73
2023/09/17 03:43:17;;;;;;;0.00;0.00;;;20.90;94.90;;;;;;5012132;28;20419;-73
2023/09/17 03:45:43;;;;;;;0.00;0.00;;;20.90;94.90;;;;;;5014255;28;20501;-73
2023/09/17 03:48:09;;;;;;;0.00;0.00;;;20.90;95.10;;;;;;5014587;28;20984;-73
2023/09/17 03:50:39;;;;;;;0.00;0.00;;;20.90;95.00;;;;;;5013539;28;20407;-73
2023/09/17 03:53:07;;;;;;;0.00;0.00;;;20.90;94.90;;;;;;5010944;28;20413;-73
2023/09/17 03:55:34;;;;;;;0.00;0.00;;;20.90;95.20;;;;;;5027487;28;20411;-73
2023/09/17 03:58:03;;;;;;;0.00;0.00;;;20.90;95.10;;;;;;5016972;28;21102;-73
2023/09/17 04:00:30;;;;;;;0.00;0.00;;;20.90;95.10;;;;;;5027979;28;20484;-73
2023/09/17 04:02:56;;;;;;;0.00;0.00;;;20.90;95.10;;;;;;5024440;28;20428;-73
2023/09/17 04:05:24;;;;;;;0.00;0.00;;;20.90;95.00;;;;;;5025862;28;20427;-73
2023/09/17 04:07:50;;;;;;;0.00;0.00;;;20.90;95.00;;;;;;5000455;28;20434;-73
2023/09/17 04:10:18;;;;;;;0.00;0.00;;;20.90;95.30;;;;;;5012770;28;20411;-73
2023/09/17 04:12:47;;;;;;;0.00;0.00;;;20.90;95.40;;;;;;5010417;28;20434;-73
2023/09/17 04:15:17;;;;;;;0.00;0.00;;;21.00;95.60;;;;;;5025128;28;20418;-74
2023/09/17 04:17:45;;;;;;;0.00;0.00;;;21.00;95.70;;;;;;5012435;28;20755;-73
2023/09/17 04:20:14;;;;;;;0.00;0.00;;;21.00;95.70;;;;;;5013529;28;20450;-73
2023/09/17 04:22:42;;;;;;;0.00;0.00;;;21.00;95.50;;;;;;5028039;28;20420;-73
2023/09/17 04:25:09;;;;;;;0.00;0.00;;;21.00;95.40;;;;;;5010853;28;20456;-74
2023/09/17 04:27:41;;;;;;;0.00;0.00;;;21.00;95.40;;;;;;5024470;28;20921;-73
2023/09/17 04:30:09;;;;;;;0.00;0.00;;;21.10;95.50;;;;;;5009466;28;20458;-74
2023/09/17 04:32:41;;;;;;;0.00;0.00;;;21.00;95.50;;;;;;5010146;28;20419;-73
2023/09/17 04:35:10;;;;;;;0.00;0.00;;;21.10;95.70;;;;;;5012124;28;20509;-74
2023/09/17 04:37:40;;;;;;;0.00;0.00;;;21.10;95.90;;;;;;5014016;28;20451;-73
2023/09/17 04:40:11;;;;;;;0.00;0.00;;;21.10;96.00;;;;;;5010911;28;20422;-74
2023/09/17 04:42:43;;;;;;;0.00;0.00;;;21.10;96.10;;;;;;5011486;28;21103;-74
2023/09/17 04:45:11;;;;;;;0.00;0.00;;;21.10;96.40;;;;;;4998157;28;20424;-74
2023/09/17 04:47:38;;;;;;;0.00;0.00;;;21.10;96.60;;;;;;5040063;28;20456;-74
2023/09/17 04:50:12;;;;;;;0.00;0.00;;;21.10;96.70;;;;;;5001424;28;20499;-74
2023/09/17 04:52:39;;;;;;;0.00;0.00;;;21.20;96.90;;;;;;5015769;28;20472;-74
2023/09/17 04:55:06;;;;;;;0.00;0.00;;;21.20;97.20;;;;;;5013842;28;20464;-74
2023/09/17 04:57:32;;;;;;;0.00;0.00;;;21.30;97.50;;;;;;5032574;28;20433;-73
2023/09/17 05:00:09;;;;;;;0.00;0.00;;;21.30;97.70;;;;;;5015402;28;20782;-73
2023/09/17 05:02:36;;;;;;;0.00;0.00;;;21.30;97.90;;;;;;5015189;28;20458;-73
2023/09/17 05:05:03;;;;;;;0.00;0.00;;;21.40;98.00;;;;;;5033795;28;20428;-74
2023/09/17 05:07:29;;;;;;;0.00;0.00;;;21.40;98.30;;;;;;5012510;28;20420;-73
2023/09/17 05:09:55;;;;;;;0.00;0.00;;;21.50;98.60;;;;;;5018440;28;20429;-73
2023/09/17 05:12:22;;;;;;;0.00;0.00;;;21.50;98.60;;;;;;5012407;28;20925;-73
2023/09/17 05:14:48;;;;;;;0.00;0.00;;;21.60;99.10;;;;;;5012425;28;20416;-73
2023/09/17 05:17:15;;;;;;;0.00;0.00;;;21.60;99.20;;;;;;5014163;28;20417;-75
2023/09/17 05:19:41;;;;;;;0.00;0.00;;;21.60;99.30;;;;;;5015910;28;20419;-75
2023/09/17 05:22:08;;;;;;;0.00;0.00;;;21.70;99.30;;;;;;5047977;28;20410;-75
2023/09/17 05:24:34;;;;;;;0.00;0.00;;;21.70;99.30;;;;;;5030828;28;20430;-75
2023/09/17 05:27:00;;;;;;;0.00;0.00;;;21.80;99.70;;;;;;5017182;28;20992;-75
2023/09/17 05:29:27;;;;;;;0.00;0.00;;;21.80;99.40;;;;;;5016784;28;20477;-75
2023/09/17 05:31:53;;;;;;;0.00;0.00;;;21.80;99.50;;;;;;5014846;28;20426;-75
2023/09/17 05:34:19;;;;;;;0.00;0.00;;;21.90;99.60;;;;;;5018490;28;21029;-75
2023/09/17 05:36:46;;;;;;;0.00;0.00;;;21.90;99.00;;;;;;5014175;28;20913;-75
2023/09/17 05:39:12;;;;;;;0.00;0.00;;;22.00;99.10;;;;;;5010979;28;20957;-75
2023/09/17 05:41:39;;;;;;;0.00;0.00;;;22.00;98.90;;;;;;5025847;28;20833;-75
2023/09/17 05:44:06;;;;;;;0.00;0.00;;;22.00;98.70;;;;;;5016534;28;20858;-75
2023/09/17 05:46:32;;;;;;;0.00;0.00;;;22.10;99.10;;;;;;5012242;28;20552;-75
2023/09/17 05:48:58;;;;;;;0.00;0.00;;;22.10;99.10;;;;;;5015065;28;20411;-75
2023/09/17 05:51:25;;;;;;;0.03;0.03;;;22.20;99.20;;;;;;5012831;28;21309;-75
2023/09/17 05:53:51;;;;;;;0.00;0.00;;;22.20;99.60;;;;;;5016852;28;20485;-75
2023/09/17 05:56:18;;;;;;;0.00;0.00;;;22.30;99.80;;;;;;5015324;28;20417;-75
2023/09/17 05:58:44;;;;;;;0.00;0.00;;;22.30;99.20;;;;;;5012476;28;20422;-75
2023/09/17 06:01:10;;;;;;;0.00;0.00;;;22.40;99.40;;;;;;5027171;28;20419;-75
2023/09/17 06:03:36;;;;;;;0.00;0.00;;;22.40;99.40;;;;;;5008571;28;20432;-75
2023/09/17 06:06:04;;;;;;;0.00;0.00;;;22.40;99.60;;;;;;5031941;28;20928;-75
2023/09/17 06:08:31;;;;;;;0.00;0.00;;;22.50;99.50;;;;;;5014638;28;20429;-75
2023/09/17 06:10:57;;;;;;;0.00;0.00;;;22.50;99.60;;;;;;5011881;28;20410;-74
2023/09/17 06:13:23;;;;;;;0.00;0.00;;;22.60;98.90;;;;;;5028973;28;21695;-75
2023/09/17 06:15:50;;;;;;;0.00;0.00;;;22.60;98.50;;;;;;5031972;28;20495;-75
2023/09/17 06:18:19;;;;;;;0.00;0.00;;;22.70;98.60;;;;;;5013948;28;20443;-74
2023/09/17 06:20:45;;;;;;;0.00;0.00;;;22.80;98.80;;;;;;5015693;28;20453;-75
2023/09/17 06:23:12;;;;;;;0.00;0.00;;;22.80;99.00;;;;;;5015822;28;20656;-75
2023/09/17 06:25:38;;;;;;;0.00;0.00;;;22.90;99.00;;;;;;5006723;28;20911;-75
2023/09/17 06:28:05;;;;;;;0.00;0.00;;;22.90;99.30;;;;;;5013002;28;21463;-76
2023/09/17 06:30:32;;;;;;;0.00;0.00;;;23.00;99.10;;;;;;5016455;28;20415;-76
2023/09/17 06:32:58;;;;;;;0.00;0.00;;;23.00;99.40;;;;;;5012250;28;20785;-75
2023/09/17 06:35:25;;;;;;;0.00;0.00;;;23.10;99.20;;;;;;5013403;28;20556;-76
2023/09/17 06:37:51;;;;;;;0.00;0.00;;;23.10;99.20;;;;;;5017847;28;20423;-76
2023/09/17 06:40:17;;;;;;;0.00;0.00;;;23.20;98.90;;;;;;5014771;28;20436;-76
2023/09/17 06:42:43;;;;;;;0.00;0.00;;;23.20;99.00;;;;;;5015336;28;20480;-75
2023/09/17 06:45:11;;;;;;;0.00;0.00;;;23.30;99.10;;;;;;5027107;28;20419;-76
2023/09/17 06:47:37;;;;;;;0.00;0.00;;;23.30;99.20;;;;;;5012592;28;20427;-76
2023/09/17 06:50:04;;;;;;;0.00;0.00;;;23.40;99.10;;;;;;5013635;28;20451;-76
2023/09/17 06:52:30;;;;;;;0.00;0.00;;;23.40;98.70;;;;;;5049193;28;20480;-75
2023/09/17 06:54:56;;;;;;;0.00;0.00;;;23.50;98.80;;;;;;5018681;28;20411;-75
2023/09/17 06:57:23;;;;;;;0.00;0.00;;;23.50;99.20;;;;;;5010172;28;20454;-76
2023/09/17 06:59:49;;;;;;;0.00;0.00;;;23.60;98.70;;;;;;5015631;28;20422;-75
2023/09/17 07:02:15;;;;;;;0.00;0.00;;;23.60;98.00;;;;;;5014285;28;20498;-75
2023/09/17 07:04:43;;;;;;;0.00;0.00;;;23.70;97.30;;;;;;5018624;28;20419;-75
2023/09/17 07:07:12;;;;;;;0.00;0.00;;;23.90;97.60;;;;;;5044871;28;20906;-76
2023/09/17 07:09:38;;;;;;;0.00;0.00;;;24.00;97.00;;;;;;5031693;28;20422;-76
2023/09/17 07:12:05;;;;;;;0.00;0.00;;;24.00;97.00;;;;;;5031264;28;20413;-75
2023/09/17 07:14:32;;;;;;;0.00;0.00;;;24.10;96.70;;;;;;5010675;28;20409;-76
2023/09/17 07:16:58;;;;;;;0.00;0.00;;;24.10;96.80;;;;;;5012298;28;20593;-76
2023/09/17 07:19:25;;;;;;;0.00;0.00;;;24.20;97.00;;;;;;5028161;28;20766;-75
2023/09/17 07:21:51;;;;;;;0.00;0.00;;;24.30;96.90;;;;;;5013079;28;20815;-74
2023/09/17 07:24:17;;;;;;;0.00;0.00;;;24.30;96.40;;;;;;5002159;28;20418;-75
2023/09/17 07:26:44;;;;;;;0.00;0.00;;;24.40;95.90;;;;;;5010577;28;20420;-75
2023/09/17 07:29:11;;;;;;;0.00;0.00;;;24.50;96.20;;;;;;5006456;28;20414;-75
2023/09/17 07:31:37;;;;;;;0.00;0.00;;;24.60;96.30;;;;;;5021927;28;20415;-75
2023/09/17 07:34:03;;;;;;;0.00;0.00;;;24.70;97.10;;;;;;5001586;28;22026;-75
2023/09/17 07:36:29;;;;;;;0.00;0.00;;;24.70;95.90;;;;;;5002881;28;20436;-75
2023/09/17 07:38:56;;;;;;;0.00;0.00;;;24.80;96.50;;;;;;5001912;28;20421;-75
2023/09/17 07:41:22;;;;;;;0.00;0.00;;;24.90;96.90;;;;;;5033598;28;20477;-75
2023/09/17 07:43:48;;;;;;;0.00;0.00;;;25.00;97.00;;;;;;5015246;28;20424;-75
2023/09/17 07:46:15;;;;;;;0.00;0.00;;;25.10;97.10;;;;;;5017390;28;20464;-74
2023/09/17 07:48:43;;;;;;;0.00;0.00;;;25.10;97.30;;;;;;5002696;28;20422;-74
2023/09/17 07:51:09;;;;;;;0.00;0.00;;;25.20;97.80;;;;;;4998812;28;20484;-75
2023/09/17 07:53:35;;;;;;;0.00;0.00;;;25.30;97.90;;;;;;5001405;28;20545;-75
2023/09/17 07:56:03;;;;;;;0.00;0.00;;;25.40;97.80;;;;;;5001279;28;20455;-75
2023/09/17 07:58:29;;;;;;;0.00;0.00;;;25.50;98.50;;;;;;5002568;28;20949;-75
2023/09/17 08:00:56;;;;;;;0.00;0.00;;;25.50;99.40;;;;;;5002718;28;20412;-76
2023/09/17 08:03:22;;;;;;;0.00;0.00;;;25.60;99.70;;;;;;5016953;28;20411;-75
2023/09/17 08:05:49;;;;;;;0.00;0.00;;;25.80;99.90;;;;;;5001910;28;20435;-74
2023/09/17 08:08:16;;;;;;;0.00;0.00;;;25.80;99.90;;;;;;5002288;28;20435;-74
2023/09/17 08:10:42;;;;;;;0.00;0.00;;;25.90;99.90;;;;;;5005558;28;20545;-75
2023/09/17 08:13:09;;;;;;;0.00;0.00;;;26.00;99.90;;;;;;5006148;28;20424;-74
2023/09/17 08:15:35;;;;;;;0.00;0.00;;;26.00;99.90;;;;;;5012487;28;20416;-74
2023/09/17 08:18:01;;;;;;;0.00;0.00;;;26.10;99.90;;;;;;4999975;28;20411;-75
2023/09/17 08:20:28;;;;;;;0.00;0.00;;;26.20;99.90;;;;;;5025176;28;20455;-75
2023/09/17 08:22:54;;;;;;;0.00;0.00;;;26.20;99.90;;;;;;5026338;28;20424;-75
2023/09/17 08:25:20;;;;;;;0.00;0.00;;;26.30;99.90;;;;;;5013895;28;20437;-75
2023/09/17 08:27:47;;;;;;;0.00;0.00;;;26.30;99.90;;;;;;5027071;28;20442;-75
2023/09/17 08:30:15;;;;;;;0.00;0.00;;;26.40;99.90;;;;;;5027494;28;20494;-74
2023/09/17 08:32:44;;;;;;;0.00;0.00;;;26.40;99.90;;;;;;5009278;28;20442;-75
2023/09/17 08:35:14;;;;;;;0.00;0.00;;;26.50;99.90;;;;;;5008281;28;20445;-75
2023/09/17 08:37:42;;;;;;;0.00;0.00;;;26.50;99.90;;;;;;5014607;28;20458;-75
2023/09/17 08:40:14;;;;;;;0.00;0.00;;;26.60;99.90;;;;;;5021127;28;20426;-74
2023/09/17 08:42:45;;;;;;;0.00;0.00;;;26.60;99.90;;;;;;5008239;28;21000;-74
2023/09/17 08:45:13;;;;;;;0.00;0.00;;;26.70;99.70;;;;;;5010836;28;20428;-74
2023/09/17 08:47:40;;;;;;;0.10;0.10;;;26.70;99.90;;;;;;5010007;28;20431;-74
2023/09/17 08:50:09;;;;;;;0.00;0.00;;;26.80;99.80;;;;;;5008994;28;20476;-74
2023/09/17 08:52:48;;;;;;;0.00;0.00;;;26.80;99.80;;;;;;5011933;28;20788;-74
2023/09/17 08:55:17;;;;;;;0.00;0.00;;;26.90;99.90;;;;;;5008748;28;20541;-73
2023/09/17 09:00:32;;;;;;;0.00;0.00;;;27.00;99.90;;;;;;5049732;28;20953;-73
2023/09/17 09:03:06;;;;;;;0.00;0.00;;;27.10;99.90;;;;;;5059676;28;20429;-73
2023/09/17 09:05:35;;;;;;;0.00;0.00;;;27.20;99.90;;;;;;5031969;28;20418;-73
2023/09/17 09:08:04;;;;;;;0.00;0.00;;;27.30;99.90;;;;;;5031960;28;20423;-73
2023/09/17 09:10:31;;;;;;;0.00;0.00;;;27.40;99.90;;;;;;5031160;28;20420;-73
2023/09/17 09:12:59;;;;;;;0.00;0.00;;;27.50;99.90;;;;;;5034987;28;20449;-73
2023/09/17 09:15:28;;;;;;;0.00;0.00;;;27.60;99.90;;;;;;5038505;28;20417;-73
2023/09/17 09:17:55;;;;;;;0.00;0.00;;;27.70;99.90;;;;;;5036533;28;20409;-73
2023/09/17 09:20:22;;;;;;;0.00;0.00;;;27.80;99.90;;;;;;5035110;28;20472;-73
2023/09/17 09:22:48;;;;;;;0.00;0.00;;;28.00;99.90;;;;;;5070242;28;20428;-73
2023/09/17 09:25:16;;;;;;;0.00;0.00;;;28.10;99.90;;;;;;5067087;28;20460;-73
2023/09/17 09:27:43;;;;;;;0.00;0.00;;;28.30;99.90;;;;;;5034814;28;20422;-73
2023/09/17 09:30:14;;;;;;;0.10;0.10;;;28.30;99.90;;;;;;5033403;28;20418;-73
2023/09/17 09:34:55;;;;;;;0.00;0.00;;;28.50;99.90;;;;;;5086723;27;20385;-73
2023/09/17 09:37:23;;;;;;;0.10;0.10;;;28.60;99.90;;;;;;5089000;28;20411;-72
2023/09/17 09:39:50;;;;;;;0.00;0.00;;;28.70;99.90;;;;;;5066018;28;20972;-72
2023/09/17 09:42:17;;;;;;;0.10;0.10;;;28.90;99.90;;;;;;5063009;28;20410;-73
2023/09/17 09:44:43;;;;;;;0.10;0.10;;;29.00;99.90;;;;;;5054186;28;20422;-72
2023/09/17 09:47:13;;;;;;;0.07;0.07;;;29.10;99.90;;;;;;5061100;28;20426;-72
2023/09/17 09:49:44;;;;;;;0.00;0.00;;;29.20;99.90;;;;;;5059276;28;20416;-73
2023/09/17 09:52:17;;;;;;;0.00;0.00;;;29.30;99.90;;;;;;5055748;28;20810;-73
2023/09/17 09:54:46;;;;;;;0.10;0.10;;;29.40;99.90;;;;;;5053527;28;20842;-73
2023/09/17 09:57:15;;;;;;;0.10;0.10;;;29.50;99.90;;;;;;5065794;28;20410;-73
2023/09/17 09:59:45;;;;;;;0.10;0.10;;;29.60;99.90;;;;;;5055241;28;20420;-73
2023/09/17 10:05:48;;;;;;;0.10;0.10;;;29.90;99.90;;;;;;5067022;27;20393;-73
2023/09/17 10:08:19;;;;;;;0.00;0.00;;;29.90;99.90;;;;;;5071612;28;20423;-72
2023/09/17 10:10:48;;;;;;;0.00;0.00;;;30.00;99.90;;;;;;5064164;28;20412;-73
2023/09/17 10:13:17;;;;;;;0.00;0.00;;;30.10;99.90;;;;;;5076476;28;20416;-73
2023/09/17 10:15:43;;;;;;;0.10;0.10;;;30.10;99.90;;;;;;5096027;28;20533;-73
2023/09/17 10:18:13;;;;;;;0.00;0.00;;;30.10;99.90;;;;;;5067275;28;20423;-73
2023/09/17 10:20:44;;;;;;;0.10;0.10;;;30.20;99.90;;;;;;5066458;28;20438;-73
2023/09/17 10:23:15;;;;;;;0.10;0.10;;;30.20;99.90;;;;;;5056913;28;21109;-73
2023/09/17 10:25:44;;;;;;;0.10;0.10;;;30.20;99.90;;;;;;5075183;28;20426;-72
2023/09/17 10:28:13;;;;;;;0.10;0.10;;;30.30;99.90;;;;;;5074925;28;20403;-73
2023/09/17 10:30:45;;;;;;;0.03;0.03;;;30.20;99.90;;;;;;5064644;28;21152;-73
2023/09/17 10:33:14;;;;;;;0.10;0.10;;;30.20;99.90;;;;;;5082700;28;20798;-73
2023/09/17 10:35:43;;;;;;;0.10;0.10;;;30.20;99.90;;;;;;5082638;28;20416;-73
2023/09/17 10:38:11;;;;;;;0.10;0.10;;;30.10;99.90;;;;;;5066189;28;21098;-73
2023/09/17 10:40:39;;;;;;;0.10;0.10;;;30.10;99.90;;;;;;5100799;28;20424;-73
2023/09/17 10:43:07;;;;;;;0.00;0.00;;;30.10;99.90;;;;;;5074053;28;20414;-73
2023/09/17 10:45:40;;;;;;;0.10;0.10;;;30.10;99.90;;;;;;5067650;28;20483;-73
2023/09/17 10:48:10;;;;;;;0.10;0.10;;;30.10;99.90;;;;;;5088707;28;20425;-73
2023/09/17 10:50:39;;;;;;;0.10;0.10;;;30.10;99.90;;;;;;5072262;28;20509;-73
2023/09/17 10:53:06;;;;;;;0.10;0.10;;;30.10;99.90;;;;;;5061890;28;20465;-73
2023/09/17 10:55:42;;;;;;;0.10;0.10;;;30.00;99.90;;;;;;5074319;28;20413;-73
2023/09/17 10:58:41;;;;;;;0.10;0.10;;;30.00;99.90;;;;;;5059200;28;20486;-73
2023/09/17 11:01:12;;;;;;;0.10;0.10;;;30.10;99.90;;;;;;5065034;28;20516;-73
2023/09/17 11:03:46;;;;;;;0.10;0.10;;;30.10;99.90;;;;;;5077431;28;20503;-73
2023/09/17 11:06:23;;;;;;;0.10;0.10;;;30.00;99.90;;;;;;5066872;28;20409;-73
2023/09/17 11:08:56;;;;;;;0.10;0.10;;;30.10;99.90;;;;;;5069195;28;22000;-73
2023/09/17 11:11:29;;;;;;;0.10;0.10;;;30.00;99.90;;;;;;5100084;28;20980;-73
2023/09/17 11:13:56;;;;;;;0.03;0.03;;;29.90;99.90;;;;;;5078320;28;20413;-73
2023/09/17 11:16:26;;;;;;;0.10;0.10;;;30.00;99.90;;;;;;5073287;28;20446;-73
2023/09/17 11:19:20;;;;;;;0.00;0.00;;;30.00;99.90;;;;;;5056915;28;21021;-73
2023/09/17 11:22:10;;;;;;;0.10;0.10;;;29.90;99.90;;;;;;5088039;28;20413;-73
2023/09/17 11:24:40;;;;;;;0.10;0.10;;;29.90;99.90;;;;;;5091455;28;20471;-73
2023/09/17 11:27:08;;;;;;;0.10;0.10;;;29.90;99.90;;;;;;5054742;28;20493;-73
2023/09/17 11:29:45;;;;;;;0.00;0.00;;;29.90;99.90;;;;;;5050669;28;20398;-73
2023/09/17 11:32:20;;;;;;;0.10;0.10;;;29.90;99.90;;;;;;5073052;28;20966;-73
2023/09/17 11:34:47;;;;;;;0.00;0.00;;;29.90;99.90;;;;;;5075849;28;20407;-73
2023/09/17 11:37:19;;;;;;;0.10;0.10;;;29.90;99.90;;;;;;5068141;28;20426;-73
2023/09/17 11:39:52;;;;;;;0.10;0.10;;;29.80;99.90;;;;;;5080864;28;20537;-73
2023/09/17 11:42:22;;;;;;;0.10;0.10;;;29.80;99.90;;;;;;5070833;28;20457;-74
2023/09/17 11:44:52;;;;;;;0.10;0.10;;;29.90;99.90;;;;;;5084463;28;20489;-74
2023/09/17 11:47:19;;;;;;;0.10;0.10;;;29.80;99.90;;;;;;5082780;28;21044;-74
2023/09/17 11:49:46;;;;;;;0.10;0.10;;;29.80;99.90;;;;;;5040204;28;20498;-74
2023/09/17 11:52:13;;;;;;;0.10;0.10;;;29.80;99.90;;;;;;5073276;28;20426;-73
2023/09/17 11:54:50;;;;;;;0.10;0.10;;;29.80;99.90;;;;;;5052454;28;20496;-73
2023/09/17 11:57:27;;;;;;;0.10;0.10;;;29.90;99.90;;;;;;5059341;28;20485;-74
2023/09/17 11:59:55;;;;;;;0.10;0.10;;;29.90;99.90;;;;;;5083655;28;20983;-74
2023/09/17 12:02:22;;;;;;;0.00;0.00;;;29.90;99.90;;;;;;5051946;28;20993;-73
2023/09/17 12:04:51;;;;;;;0.10;0.10;;;29.90;99.90;;;;;;5068881;28;20427;-74
2023/09/17 12:07:17;;;;;;;0.00;0.00;;;29.90;99.90;;;;;;5079266;28;20415;-74
2023/09/17 12:12:19;;;;;;;0.10;0.10;;;29.90;99.90;;;;;;5077639;28;20414;-74
2023/09/17 12:14:47;;;;;;;0.10;0.10;;;29.90;99.90;;;;;;5050470;28;20411;-73
2023/09/17 12:17:16;;;;;;;0.10;0.10;;;29.90;99.90;;;;;;5056166;28;20423;-74
2023/09/17 12:19:43;;;;;;;0.08;0.08;;;29.90;99.90;;;;;;5066824;28;20412;-74
2023/09/17 12:22:09;;;;;;;0.10;0.10;;;29.90;99.90;;;;;;5053775;28;20413;-74
2023/09/17 12:24:39;;;;;;;0.10;0.10;;;29.80;99.90;;;;;;5052053;28;20447;-74
2023/09/17 12:29:54;;;;;;;0.03;0.03;;;29.90;99.90;;;;;;5067788;28;20914;-74
2023/09/17 12:32:30;;;;;;;0.10;0.10;;;29.90;99.90;;;;;;5076711;28;20502;-74
2023/09/17 12:34:57;;;;;;;0.00;0.00;;;29.90;99.90;;;;;;5081724;28;20486;-74
2023/09/17 12:37:25;;;;;;;0.10;0.10;;;29.90;99.90;;;;;;5089220;28;20915;-74
2023/09/17 12:39:52;;;;;;;0.05;0.05;;;29.90;99.90;;;;;;5062597;28;20411;-74
2023/09/17 12:42:21;;;;;;;0.10;0.10;;;29.90;99.90;;;;;;5074310;28;20859;-74
2023/09/17 12:44:48;;;;;;;0.03;0.03;;;29.80;99.90;;;;;;5041608;28;20430;-74
2023/09/17 12:47:15;;;;;;;0.10;0.10;;;29.80;99.90;;;;;;5071966;28;20574;-74
2023/09/17 12:49:43;;;;;;;0.10;0.10;;;29.80;99.90;;;;;;5086787;28;20413;-74
2023/09/17 12:52:11;;;;;;;0.10;0.10;;;29.80;99.90;;;;;;5057639;28;20507;-74
2023/09/17 12:54:38;;;;;;;0.10;0.10;;;29.90;99.90;;;;;;5074376;28;20430;-74
2023/09/17 12:57:05;;;;;;;0.10;0.10;;;29.90;99.90;;;;;;5064121;28;20442;-73
2023/09/17 12:59:37;;;;;;;0.10;0.10;;;29.90;99.90;;;;;;5071981;28;20472;-74
2023/09/17 13:02:06;;;;;;;0.10;0.10;;;29.80;99.90;;;;;;5040237;28;20465;-74
2023/09/17 13:04:43;;;;;;;0.10;0.10;;;29.80;99.90;;;;;;5069687;28;20776;-73
2023/09/17 13:07:23;;;;;;;0.10;0.10;;;29.80;99.90;;;;;;5057736;28;20961;-74